Logo AVAMET
Benvolgut visitant, si us plau, ingressa Recuperar contrasenya

Vilallonga nord

Dades diàries. Acumulats / Últims 30 dies disponibles

Data Temperatura (°C) Humitat rel. (%) Pressió rel. (hPa) Vent (km/h) Precipitació
Mínima Mitjana Màxima Amplitud
tèrmica
Mínima Mitjana Màxima Mínima Mitjana Màxima Predom. Mitjana Ràfega
màxima
Total
(mm)
Índex-n
Mínima Mitjana Màxima Mínima Mitjana Màxima n
0 a 1
P0 max
mm 5'
Dades mensuals acumulades fins l'últim dia disponible
05/2019 9,7 15,1 22,7 19,5 18,7 24,6 32,3 22,6 25 65 94 1.002 1.014 1.025   3,6 51,5 10,2
Dades anuals acumulades fins l'últim dia disponible
2019 2,1 10,5 22,7 14,7 11,7 19,7 32,3 30,2 15 61 98 994 1.019 1.036   4,2 62,8 344,3
Últims 30 dies disponibles
25-05-2019 15,6     17,7     21,6 6,0 50 73 91 1.015 1.017 1.019 ESE 2,0 22,5 1,0
24-05-2019 16,6     18,5     20,7 4,1 62 76 85 1.013 1.014 1.016 SE 2,3 25,7 0,6
23-05-2019 15,8     22,5     29,9 14,1 30 59 82 1.013 1.016 1.019 E 1,4 16,1 0,0
22-05-2019 14,6     20,1     26,2 11,6 53 72 88 1.016 1.018 1.019 ESE 2,6 25,7 0,0
21-05-2019 16,8     19,2     24,9 8,1 56 75 86 1.014 1.015 1.017 SE 2,1 30,6 1,8
20-05-2019 12,8     19,3     24,9 12,1 34 55 75 1.011 1.012 1.014 SE 3,8 25,7 0,0
19-05-2019 13,1     18,2     23,6 10,5 26 57 84 1.009 1.011 1.013 SSO 3,8 37,0 0,0
18-05-2019 14,7     17,2     19,8 5,1 42 61 82 1.008 1.009 1.010 ESE 2,7 22,5 1,4
17-05-2019 16,4     20,5     24,6 8,2 30 46 84 1.002 1.005 1.010 OSO 9,8 51,5 0,0
16-05-2019 16,6     19,8     25,0 8,4 55 70 82 1.005 1.011 1.015 ENE 3,5 25,7 0,0
15-05-2019 16,1     19,3     23,3 7,2 42 62 84 1.011 1.012 1.016 E 3,0 24,1 0,0
14-05-2019 13,2     20,3     28,4 15,2 29 57 80 1.013 1.018 1.022 SSE 2,7 22,5 0,0
13-05-2019 14,9     19,3     23,5 8,6 34 63 83 1.018 1.020 1.021 E 3,8 29,0 0,0
12-05-2019 16,2     20,4     25,9 9,7 49 68 86 1.019 1.022 1.025 NE 2,8 24,1 0,0
11-05-2019 18,3     22,3     25,4 7,1 43 60 78 1.014 1.018 1.024 E 4,5 25,7 0,0
10-05-2019 22,7     26,5     32,3 9,6 25 46 57 1.011 1.013 1.014 OSO 6,0 35,4 0,0
09-05-2019 20,9     24,4     29,2 8,3 39 50 62 1.011 1.012 1.014 O 6,6 37,0 0,0
08-05-2019 14,8     22,8     29,4 14,6 34 58 94 1.009 1.012 1.015 SSO 6,9 45,1 0,0
07-05-2019 15,1     20,5     28,0 12,9 41 71 88 1.013 1.016 1.019 E 1,6 20,9 0,0
06-05-2019 11,9     16,8     21,6 9,7 63 76 88 1.017 1.018 1.020 ENE 2,5 24,1 0,0
05-05-2019 12,4     17,0     20,9 8,5 41 63 82 1.012 1.015 1.017 ESE 3,5 27,4 0,0
04-05-2019 9,7     16,5     24,3 14,6 43 65 90 1.010 1.013 1.015 S 3,0 20,9 0,0
03-05-2019 11,6     14,3     18,7 7,1 66 79 92 1.011 1.013 1.016 E 3,9 30,6 5,4 0,68 0,80
02-05-2019 13,2     16,3     18,7 5,5 65 78 90 1.014 1.015 1.017 ENE 2,8 20,9 0,0
01-05-2019 14,4     17,8     23,3 8,9 41 73 91 1.012 1.015 1.017 E 2,8 20,9 0,0
30-04-2019 15,7     18,9     24,4 8,7 46 71 87 1.015 1.017 1.019 ENE 3,0 24,1 1,2
29-04-2019 12,9     17,0     22,9 10,0 60 78 91 1.016 1.019 1.021 E 2,5 25,7 0,0
28-04-2019 12,9     18,0     22,6 9,7 46 64 85 1.019 1.022 1.025 ENE 3,0 25,7 0,0
27-04-2019 12,3     18,5     24,0 11,7 34 51 66 1.023 1.025 1.027 SE 4,2 22,5 0,0
26-04-2019 13,5     17,9     23,2 9,7 33 47 60 1.018 1.022 1.025 SO 6,3 38,6 0,0
Últims 13 mesos disponibles
04/2019 9,4 12,4 16,9 16,0 13,7 20,1 29,6 20,2 35 66 96 1.000 1.013 1.025 ENE 5,2 49,9 221,5
03/2019 6,7 10,1 17,2 14,9 13,4 20,2 28,8 22,1 33 56 91 1.010 1.023 1.030 SE 3,3 48,3 102,2
02/2019 4,9 8,2 11,8 12,5 12,7 17,8 24,5 19,6 35 60 82 996 1.025 1.034 ESE 3,9 62,8 0,4
01/2019 2,1 7,4 14,2 11,4 11,7 16,8 20,9 18,8 37 57 82 1.003 1.019 1.031 SSE 4,7 59,5 10,0
12/2018 5,8 9,6 13,6 13,6 13,7 19,1 25,6 19,8 47 65 90 1.010 1.026 1.031 SSE 3,1 61,2 21,2
11/2018 6,8 12,1 15,8 14,9 14,1 18,5 23,3 16,5 46 71 96 1.001 1.016 1.024 S 3,4 64,4 257,2
10/2018 9,0 15,3 19,3 18,6 14,7 22,8 29,3 20,3 43 71 92 1.000 1.015 1.026 2,9 54,7 117,8
09/2018 16,1 20,4 23,8 23,7 24,4 28,1 32,6 16,5 56 78 89 1.012 1.019 1.028 2,5 74,0 158,4
08/2018 20,3 23,7 26,4 27,7 25,9 32,4 38,3 18,0 39 65 85 1.011 1.016 1.020 3,7 35,4 15,0
07/2018 21,4 23,4 26,2 27,8 26,7 32,6 38,4 17,0 29 61 82 1.009 1.014 1.019 4,3 43,5 0,4
06/2018 15,6 20,0 23,1 24,5 22,9 29,6 35,7 20,1 41 58 78 1.009 1.015 1.020 4,2 45,1 17,6
05/2018 10,0 15,3 18,5 19,7 17,8 24,7 29,7 19,7 39 61 82 1.009 1.015 1.018 4,2 41,8 9,0
04/2018 11,4 14,0 20,1 18,1 17,9 22,4 30,7 19,3 40 63 82 1.010 1.018 1.025 4,2 53,1 10,4
Tots els anys disponibles
Temperatura (°C)
Humitat relativa (%)
Velocitat del vent i ràfega màxima (km/h)
Direcció del vent (°)
Pressió (hPa)
Precipitació (mm)
Nota sobre les dades: s'avisa a l'usuari de la provisionalitat i no oficialitat d'aquestes dades
Logo AVAMET blanc
Web allotjada a Sollutia
Llicència de Creative CommonsLa web d'AVAMET i els seus continguts estan subjectes a una llicència de
Reconeixement - No Comercial - Compartir igual
Properes estacions: Altea - Club Nàutic d'Altea (Soci), Ontinyent - El Pilar (Soci), Ares del Maestrat (Ajuntament Soci), Catadau - L'Altet (Inforatge)     - - - - -      Últimes estacions: Asp - Poliesportiu (Soci), Jacarilla - centro (MeteOrihuela), Elx - Maitino/Vallverda/Velarde/Matola/Ferriol (Soci TiempoElche.com), Orihuela - Playa Flamenca (MeteOrihuela), - - -